Time;durP1;ratioP1;P1;durP2;ratioP2;P2;SDS_P1;SDS_P2;PMS_P1;PMS_P2;Temp;Humidity;BMP_temperature;BMP_pressure;BME280_temperature;BME280_humidity;BME280_pressure;Samples;Min_cycle;Max_cycle;Signal;HPM_P1;HPM_P2
2022/11/22 00:00:39;;;;;;;22.35;9.38;;;;;;;9.45;77.26;96996.72;4440922;32;20522;-79
2022/11/22 00:03:06;;;;;;;24.33;9.27;;;;;;;9.06;78.63;96984.28;4440893;32;20101;-79
2022/11/22 00:05:33;;;;;;;25.12;10.30;;;;;;;9.55;76.56;96990.13;4440838;32;20085;-79
2022/11/22 00:08:00;;;;;;;26.27;9.85;;;;;;;10.10;74.79;96980.16;4440990;32;20146;-79
2022/11/22 00:10:27;;;;;;;28.27;10.30;;;;;;;9.13;78.53;96985.59;4440820;32;20077;-79
2022/11/22 00:12:54;;;;;;;24.77;10.13;;;;;;;8.41;82.51;96986.81;4440621;32;20113;-79
2022/11/22 00:15:21;;;;;;;24.23;9.68;;;;;;;8.93;78.43;96990.06;4440997;32;20584;-79
2022/11/22 00:17:48;;;;;;;27.15;9.75;;;;;;;9.88;74.80;96992.56;4440932;32;20135;-79
2022/11/22 00:20:14;;;;;;;;;;;;;;;10.14;73.02;96991.94;4440789;32;20086;-79
2022/11/22 00:22:41;;;;;;;25.55;9.23;;;;;;;9.27;76.12;96989.09;4440818;32;20310;-79
2022/11/22 00:25:10;;;;;;;23.62;10.20;;;;;;;9.59;76.41;96990.81;4440851;32;20101;-79
2022/11/22 00:27:37;;;;;;;20.45;8.63;;;;;;;10.00;74.08;96996.22;4440564;32;20131;-79
2022/11/22 00:30:05;;;;;;;24.63;9.88;;;;;;;10.96;69.59;96988.81;4440826;32;20069;-79
2022/11/22 00:32:32;;;;;;;24.45;10.02;;;;;;;10.20;72.74;96989.91;4440783;32;20373;-79
2022/11/22 00:34:59;;;;;;;29.23;10.50;;;;;;;10.01;73.61;96982.41;4440548;32;20452;-79
2022/11/22 00:37:25;;;;;;;22.95;9.23;;;;;;;9.70;75.43;96985.91;4440790;32;20085;-79
2022/11/22 00:39:52;;;;;;;22.98;9.38;;;;;;;10.50;71.83;96979.56;4440726;32;20089;-79
2022/11/22 00:42:19;;;;;;;24.45;10.77;;;;;;;10.53;71.23;96980.25;4440196;32;20117;-79
2022/11/22 00:44:46;;;;;;;21.33;9.50;;;;;;;9.55;75.27;96975.50;4440791;32;20097;-79
2022/11/22 00:47:13;;;;;;;24.77;10.70;;;;;;;9.71;73.28;96970.34;4440492;32;20082;-79
2022/11/22 00:49:40;;;;;;;24.75;10.35;;;;;;;10.22;71.16;96964.91;4440696;32;20130;-79
2022/11/22 00:52:07;;;;;;;27.42;10.18;;;;;;;9.79;72.24;96972.50;4440577;32;20093;-79
2022/11/22 00:54:34;;;;;;;24.02;11.00;;;;;;;9.78;73.16;96971.69;4440140;32;20093;-79
2022/11/22 00:57:00;;;;;;;25.75;10.07;;;;;;;10.31;70.48;96961.78;4440711;32;20149;-79
2022/11/22 00:59:27;;;;;;;23.55;10.70;;;;;;;10.13;72.21;96964.50;4440488;32;20085;-79
2022/11/22 01:01:54;;;;;;;24.92;10.63;;;;;;;11.48;65.63;96966.63;4426372;32;20382;-79
2022/11/22 01:04:21;;;;;;;21.90;9.60;;;;;;;10.50;68.45;96953.78;4440319;32;20089;-79
2022/11/22 01:06:48;;;;;;;17.20;6.55;;;;;;;10.18;69.97;96950.50;4440554;32;20097;-79
2022/11/22 01:09:18;;;;;;;21.33;8.93;;;;;;;10.21;70.94;96952.87;4440143;32;20107;-79
2022/11/22 01:11:45;;;;;;;25.88;10.73;;;;;;;9.17;74.29;96953.66;4426683;32;20105;-79
2022/11/22 01:14:13;;;;;;;27.37;11.45;;;;;;;9.38;75.10;96957.63;4440533;32;20580;-79
2022/11/22 01:16:40;;;;;;;33.25;10.75;;;;;;;9.91;72.41;96965.81;4440071;32;20153;-79
2022/11/22 01:19:07;;;;;;;25.98;10.68;;;;;;;9.30;74.53;96959.78;4440434;32;20104;-79
2022/11/22 01:21:34;;;;;;;62.95;12.15;;;;;;;9.93;72.05;96951.09;4440319;32;20108;-79
2022/11/22 01:24:01;;;;;;;61.33;12.45;;;;;;;10.32;69.99;96958.31;4440099;32;20088;-79
2022/11/22 01:26:27;;;;;;;99.18;13.68;;;;;;;9.75;73.24;96950.38;4440360;32;20150;-79
2022/11/22 01:28:54;;;;;;;85.68;13.20;;;;;;;9.82;73.60;96944.81;4440273;32;20081;-79
2022/11/22 01:31:21;;;;;;;97.40;13.38;;;;;;;9.90;71.99;96944.37;4439897;32;20123;-79
2022/11/22 01:33:48;;;;;;;56.85;12.82;;;;;;;10.39;69.99;96946.69;4440366;32;20150;-79
2022/11/22 01:36:15;;;;;;;76.18;11.38;;;;;;;10.22;70.62;96952.03;4439916;32;20117;-79
2022/11/22 01:38:42;;;;;;;106.25;14.07;;;;;;;9.73;73.38;96949.66;4440247;32;20077;-79
2022/11/22 01:41:09;;;;;;;75.40;11.15;;;;;;;10.33;70.76;96949.66;4440112;32;20159;-79
2022/11/22 01:43:36;;;;;;;;;;;;;;;9.52;72.51;96949.12;4439988;32;20104;-79
2022/11/22 01:46:06;;;;;;;67.97;11.85;;;;;;;9.06;75.59;96938.78;4440233;32;19976;-79
2022/11/22 01:48:40;;;;;;;76.22;11.93;;;;;;;9.90;71.71;96935.81;4426371;32;20428;-79
2022/11/22 01:51:16;;;;;;;108.63;13.15;;;;;;;9.53;73.67;96940.47;4425901;32;20101;-79
2022/11/22 01:53:43;;;;;;;40.53;9.25;;;;;;;8.83;76.14;96936.63;4439766;32;20534;-79
2022/11/22 01:56:12;;;;;;;123.18;13.95;;;;;;;9.09;76.22;96932.62;4426087;32;20430;-79
2022/11/22 01:58:40;;;;;;;115.15;13.65;;;;;;;8.60;76.69;96933.50;4425601;32;20434;-79
2022/11/22 02:01:07;;;;;;;158.40;14.02;;;;;;;8.29;79.34;96925.69;4426019;32;20116;-79
2022/11/22 02:03:36;;;;;;;135.10;12.85;;;;;;;7.80;83.05;96928.16;4439859;32;20147;-79
2022/11/22 02:06:03;;;;;;;30.25;6.78;;;;;;;8.09;81.22;96914.72;4439586;32;20076;-79
2022/11/22 02:08:44;;;;;;;34.67;7.37;;;;;;;8.93;77.80;96912.91;4425941;32;20089;-79
2022/11/22 02:11:11;;;;;;;47.92;7.95;;;;;;;7.74;83.99;96907.91;4425996;32;20436;-79
2022/11/22 02:13:40;;;;;;;122.53;13.13;;;;;;;7.35;86.21;96916.66;4439592;32;20097;-79
2022/11/22 02:16:08;;;;;;;115.55;11.48;;;;;;;8.55;80.19;96911.53;4426284;32;20143;-79
2022/11/22 02:18:36;;;;;;;124.47;13.27;;;;;;;8.60;79.14;96905.22;4427512;32;20151;-79
2022/11/22 02:21:04;;;;;;;139.07;13.43;;;;;;;8.25;80.55;96890.78;4441623;32;20116;-79
2022/11/22 02:23:33;;;;;;;158.50;14.07;;;;;;;8.47;79.54;96896.50;4441683;32;20156;-79
2022/11/22 02:26:01;;;;;;;190.25;14.23;;;;;;;7.71;82.97;96898.63;4441400;32;20138;-79
2022/11/22 02:28:30;;;;;;;86.85;10.45;;;;;;;8.26;81.37;96900.97;4441632;32;20134;-79
2022/11/22 02:30:57;;;;;;;153.85;12.82;;;;;;;9.27;75.25;96900.75;4427752;32;20120;-79
2022/11/22 02:33:24;;;;;;;193.32;14.68;;;;;;;8.45;78.15;96894.94;4441250;32;20108;-79
2022/11/22 02:35:51;;;;;;;220.30;16.77;;;;;;;9.11;76.72;96900.75;4441604;32;20402;-79
2022/11/22 02:38:30;;;;;;;168.48;13.75;;;;;;;9.41;73.96;96900.78;4441601;32;20077;-79
2022/11/22 02:41:08;;;;;;;210.10;16.27;;;;;;;9.30;74.29;96907.47;4441243;32;20097;-79
2022/11/22 02:43:35;;;;;;;;;;;;;;;9.55;74.58;96907.72;4428132;32;20120;-79
2022/11/22 02:46:08;;;;;;;147.98;12.50;;;;;;;9.49;73.51;96898.63;4441567;32;19972;-79
2022/11/22 02:48:42;;;;;;;187.02;13.23;;;;;;;9.09;75.33;96896.63;4427438;32;20187;-79
2022/11/22 02:51:15;;;;;;;110.88;11.02;;;;;;;9.59;73.42;96892.97;4441428;32;20112;-79
2022/11/22 02:53:43;;;;;;;121.35;12.40;;;;;;;8.87;77.75;96894.38;4441014;32;20140;-79
2022/11/22 02:56:10;;;;;;;38.80;6.95;;;;;;;9.33;74.65;96892.66;4441540;32;20086;-79
2022/11/22 02:58:37;;;;;;;177.93;14.57;;;;;;;8.39;77.95;96878.91;4441526;32;20085;-79
2022/11/22 03:01:04;;;;;;;28.62;5.53;;;;;;;7.73;82.32;96875.44;4440911;32;20166;-79
2022/11/22 03:03:32;;;;;;;189.90;15.93;;;;;;;8.18;81.50;96871.44;4441383;32;20098;-79
2022/11/22 03:06:01;;;;;;;171.57;14.93;;;;;;;8.40;80.43;96879.75;4441434;32;20100;-79
2022/11/22 03:08:28;;;;;;;273.55;17.70;;;;;;;8.44;81.04;96885.56;4427434;32;20516;-79
2022/11/22 03:11:00;;;;;;;118.40;11.35;;;;;;;7.98;82.78;96878.47;4441279;32;20089;-79
2022/11/22 03:13:27;;;;;;;41.88;7.12;;;;;;;7.78;82.50;96881.19;4441340;32;20150;-79
2022/11/22 03:15:54;;;;;;;66.65;8.02;;;;;;;8.57;80.01;96871.13;4441169;32;20147;-79
2022/11/22 03:18:21;;;;;;;39.60;6.70;;;;;;;8.06;82.58;96870.34;4441366;32;20086;-79
2022/11/22 03:20:48;;;;;;;100.70;11.35;;;;;;;8.14;82.31;96875.94;4441257;32;20098;-79
2022/11/22 03:23:15;;;;;;;222.12;15.68;;;;;;;7.64;83.63;96870.78;4440915;32;20686;-79
2022/11/22 03:25:42;;;;;;;225.30;16.98;;;;;;;7.51;85.65;96870.56;4441265;32;20093;-79
2022/11/22 03:28:09;;;;;;;236.82;16.85;;;;;;;8.35;81.78;96877.41;4441243;32;20155;-79
2022/11/22 03:30:39;;;;;;;;;;;;;;;8.93;78.31;96882.03;4441088;32;20116;-79
2022/11/22 03:33:06;;;;;;;214.93;15.82;;;;;;;9.01;77.80;96879.00;4441305;32;19992;-79
2022/11/22 03:35:32;;;;;;;56.92;8.65;;;;;;;9.83;74.92;96883.81;4440840;32;20085;-79
2022/11/22 03:37:59;;;;;;;;;;;;;;;8.16;81.16;96886.94;4441564;32;20108;-79
2022/11/22 03:40:26;;;;;;;155.27;13.18;;;;;;;8.05;81.64;96878.97;4441119;32;19992;-79
2022/11/22 03:42:53;;;;;;;69.45;10.30;;;;;;;9.09;74.97;96889.72;4440798;32;20128;-79
2022/11/22 03:45:19;;;;;;;;;;;;;;;8.67;77.31;96885.16;4441430;32;20134;-79
2022/11/22 03:47:46;;;;;;;160.75;13.35;;;;;;;9.34;74.10;96894.31;4441280;32;19964;-79
2022/11/22 03:50:13;;;;;;;;;;;;;;;8.98;80.89;96897.19;4440976;32;20151;-79
2022/11/22 03:52:40;;;;;;;20.85;5.20;;;;;;;8.83;76.71;96890.31;4440856;32;20321;-79
2022/11/22 03:55:07;;;;;;;52.85;10.57;;;;;;;7.79;81.96;96886.25;4441208;32;20089;-79
2022/11/22 03:57:34;;;;;;;21.62;6.90;;;;;;;7.70;80.70;96886.72;4440717;32;20151;-79
2022/11/22 04:00:01;;;;;;;84.40;12.13;;;;;;;7.04;85.44;96888.25;4440868;32;20514;-79
2022/11/22 04:02:28;;;;;;;100.97;11.43;;;;;;;6.88;86.29;96888.94;4440965;32;20105;-79
2022/11/22 04:04:55;;;;;;;;;;;;;;;7.79;80.88;96883.69;4441029;32;20744;-79
2022/11/22 04:07:22;;;;;;;27.37;8.07;;;;;;;7.55;82.83;96877.22;4441158;32;19983;-79
2022/11/22 04:09:49;;;;;;;56.65;9.73;;;;;;;7.48;84.57;96871.53;4440913;32;20706;-79
2022/11/22 04:12:16;;;;;;;;;;;;;;;6.93;84.89;96863.09;4441009;32;20112;-79
2022/11/22 04:17:42;;;;;;;102.35;10.07;;;;;;;6.64;88.72;96856.75;4441082;32;20126;-79
2022/11/22 04:23:03;;;;;;;18.92;5.78;;;;;;;6.08;89.21;96858.41;4440882;32;20102;-79
2022/11/22 04:25:32;;;;;;;52.70;8.32;;;;;;;6.19;89.58;96850.25;4440545;32;20077;-79
2022/11/22 04:27:59;;;;;;;84.62;9.63;;;;;;;5.28;93.05;96846.44;4440854;32;20085;-79
2022/11/22 04:33:15;;;;;;;48.65;10.35;;;;;;;5.64;91.97;96850.03;4401245;32;20093;-79
2022/11/22 04:35:43;;;;;;;69.15;9.35;;;;;;;4.91;94.08;96842.81;4427001;32;20559;-79
2022/11/22 04:38:10;;;;;;;68.70;10.77;;;;;;;5.04;91.99;96825.25;4440784;32;20085;-78
2022/11/22 04:40:38;;;;;;;92.57;13.30;;;;;;;4.99;91.64;96825.41;4439895;32;20093;-79
2022/11/22 04:45:51;;;;;;;82.72;11.82;;;;;;;5.13;91.70;96812.09;4428832;32;20127;-78
2022/11/22 04:48:18;;;;;;;44.60;7.05;;;;;;;4.87;92.60;96818.25;4440815;32;20155;-78
2022/11/22 04:53:30;;;;;;;67.93;10.02;;;;;;;4.45;93.20;96823.28;4440378;32;20085;-79
2022/11/22 04:55:57;;;;;;;78.75;11.77;;;;;;;4.01;93.32;96821.50;4440700;32;20589;-78
2022/11/22 04:58:24;;;;;;;37.72;9.52;;;;;;;3.81;96.53;96821.38;4440734;32;20108;-79
2022/11/22 05:00:51;;;;;;;38.30;8.80;;;;;;;3.47;98.04;96819.16;4440190;32;20098;-79
2022/11/22 05:03:19;;;;;;;170.55;16.15;;;;;;;3.63;96.98;96820.31;4426879;32;20109;-79
2022/11/22 05:05:46;;;;;;;50.22;9.63;;;;;;;4.00;95.51;96834.31;4440622;32;20085;-78
2022/11/22 05:08:13;;;;;;;36.42;9.82;;;;;;;4.12;95.13;96838.97;4440351;32;20139;-78
2022/11/22 05:10:55;;;;;;;107.32;13.55;;;;;;;3.89;94.52;96839.78;4440463;32;20089;-78
2022/11/22 05:13:30;;;;;;;31.25;9.57;;;;;;;4.42;92.73;96838.72;4440601;32;20101;-78
2022/11/22 05:15:58;;;;;;;63.22;10.60;;;;;;;5.60;86.10;96842.53;4440287;32;20078;-79
2022/11/22 05:18:26;;;;;;;55.30;11.38;;;;;;;4.82;88.32;96840.59;4426670;32;20409;-79
2022/11/22 05:20:53;;;;;;;52.95;11.82;;;;;;;4.30;90.79;96845.97;4440023;32;20159;-79
2022/11/22 05:26:07;;;;;;;44.65;10.60;;;;;;;4.28;91.80;96844.34;4440502;32;20134;-79
2022/11/22 05:28:36;;;;;;;75.22;12.73;;;;;;;3.46;95.25;96838.72;4426215;32;20150;-79
2022/11/22 05:31:08;;;;;;;56.90;10.88;;;;;;;3.66;95.89;96827.84;4440262;32;20112;-79
2022/11/22 05:33:36;;;;;;;119.93;14.80;;;;;;;3.90;95.32;96828.69;4440450;32;20108;-79
2022/11/22 05:36:04;;;;;;;56.78;11.40;;;;;;;4.58;90.66;96822.78;4426041;32;20094;-78
2022/11/22 05:38:31;;;;;;;58.13;10.93;;;;;;;4.02;92.83;96810.38;4440223;32;20078;-79
2022/11/22 05:40:57;;;;;;;77.50;13.23;;;;;;;4.73;90.78;96811.12;4426210;32;20106;-79
2022/11/22 05:43:24;;;;;;;141.10;17.15;;;;;;;4.73;90.36;96808.56;4439663;32;20452;-79
2022/11/22 05:45:51;;;;;;;;;;;;;;;3.84;93.63;96818.72;4426608;32;20443;-79
2022/11/22 05:48:18;;;;;;;53.40;9.88;;;;;;;4.70;90.38;96826.59;4440248;32;19983;-78
2022/11/22 05:50:44;;;;;;;;;;;;;;;3.47;94.60;96820.00;4440057;32;20102;-79
2022/11/22 05:53:11;;;;;;;40.60;9.68;;;;;;;3.73;94.12;96818.28;4441840;32;19987;-79
2022/11/22 05:55:38;;;;;;;45.90;11.25;;;;;;;3.96;93.24;96820.84;4442042;32;20100;-78
2022/11/22 05:58:05;;;;;;;70.10;14.38;;;;;;;3.84;94.99;96830.66;4427793;32;20090;-79
2022/11/22 06:00:32;;;;;;;55.63;12.25;;;;;;;4.21;93.31;96827.59;4441629;32;20436;-78
2022/11/22 06:03:00;;;;;;;;;;;;;;;3.62;96.14;96820.38;4441731;32;20505;-78
2022/11/22 06:05:27;;;;;;;138.95;16.30;;;;;;;3.76;95.98;96821.53;4441861;32;19973;-79
2022/11/22 06:07:59;;;;;;;29.35;7.47;;;;;;;3.93;94.47;96815.00;4441818;32;20086;-78
2022/11/22 06:10:26;;;;;;;63.05;10.57;;;;;;;4.12;92.42;96810.06;4441244;32;20361;-79
2022/11/22 06:12:53;;;;;;;47.22;11.02;;;;;;;4.21;93.15;96815.66;4441865;32;20714;-79
2022/11/22 06:15:20;;;;;;;19.60;6.82;;;;;;;2.96;99.59;96822.53;4427973;32;20089;-78
2022/11/22 06:17:47;;;;;;;66.12;13.65;;;;;;;1.81;100.00;96816.66;4441478;32;20094;-78
2022/11/22 06:20:14;;;;;;;;;;;;;;;2.42;100.00;96822.53;4441804;32;20093;-79
2022/11/22 06:22:41;;;;;;;53.80;10.02;;;;;;;3.17;100.00;96821.84;4441871;32;20056;-78
2022/11/22 06:25:08;;;;;;;;;;;;;;;2.92;100.00;96812.50;4441650;32;20077;-78
2022/11/22 06:27:35;;;;;;;58.87;9.38;;;;;;;3.07;98.24;96815.37;4441827;32;19983;-79
2022/11/22 06:30:02;;;;;;;112.97;12.60;;;;;;;4.04;94.65;96821.41;4441437;32;20159;-79
2022/11/22 06:32:32;;;;;;;46.97;9.35;;;;;;;3.62;96.02;96830.56;4441299;32;20115;-79
2022/11/22 06:35:00;;;;;;;59.38;9.70;;;;;;;3.41;97.40;96829.59;4441718;32;20100;-78
2022/11/22 06:37:28;;;;;;;73.25;12.15;;;;;;;3.21;99.45;96837.06;4441708;32;20539;-78
2022/11/22 06:39:55;;;;;;;121.10;16.20;;;;;;;2.73;100.00;96841.09;4441059;32;20464;-79
2022/11/22 06:42:22;;;;;;;70.82;12.93;;;;;;;2.95;100.00;96838.72;4441582;32;20202;-79
2022/11/22 06:44:49;;;;;;;96.97;13.38;;;;;;;3.10;100.00;96838.25;4441486;32;20089;-79
2022/11/22 06:47:16;;;;;;;78.53;12.13;;;;;;;3.58;96.85;96832.38;4441266;32;20147;-78
2022/11/22 06:49:44;;;;;;;74.90;10.80;;;;;;;3.08;99.49;96841.69;4441426;32;20145;-78
2022/11/22 06:52:11;;;;;;;81.25;11.75;;;;;;;3.43;99.75;96841.38;4437346;32;20089;-78
2022/11/22 06:54:38;;;;;;;64.50;10.15;;;;;;;4.06;95.90;96842.59;4439488;32;20093;-78
2022/11/22 06:57:12;;;;;;;121.53;13.23;;;;;;;4.19;94.43;96849.78;4440237;32;20085;-78
2022/11/22 06:59:39;;;;;;;85.25;14.05;;;;;;;4.29;94.07;96843.47;4440615;32;20118;-78
2022/11/22 07:02:10;;;;;;;52.30;9.10;;;;;;;4.22;94.83;96831.81;4426673;32;20180;-78
2022/11/22 07:04:37;;;;;;;84.40;12.75;;;;;;;4.30;95.36;96828.09;4440193;32;20085;-78
2022/11/22 07:07:24;;;;;;;63.05;9.60;;;;;;;4.20;94.77;96834.41;4440655;32;20111;-78
2022/11/22 07:09:51;;;;;;;64.32;9.48;;;;;;;3.97;96.32;96842.09;4443997;32;20117;-79
2022/11/22 07:12:22;;;;;;;47.80;9.32;;;;;;;3.41;100.00;96843.16;4444982;32;20120;-79
2022/11/22 07:14:49;;;;;;;18.60;5.90;;;;;;;4.12;96.94;96850.91;4441395;32;20110;-79
2022/11/22 07:17:16;;;;;;;97.45;12.35;;;;;;;3.44;98.46;96840.50;4441451;32;20077;-78
2022/11/22 07:19:43;;;;;;;39.63;6.97;;;;;;;3.44;100.00;96837.94;4442142;32;20183;-79
2022/11/22 07:22:09;;;;;;;;;;;;;;;3.69;99.17;96847.31;4441935;32;20116;-79
2022/11/22 07:24:36;;;;;;;41.30;7.45;;;;;;;3.56;100.00;96844.34;4444681;32;20021;-79
2022/11/22 07:27:03;;;;;;;45.90;8.25;;;;;;;3.79;100.00;96841.00;4446618;32;20112;-79
2022/11/22 07:29:30;;;;;;;80.40;12.07;;;;;;;3.98;98.07;96848.84;4446574;32;20101;-79
2022/11/22 07:31:58;;;;;;;32.78;8.02;;;;;;;3.94;98.18;96848.13;4447667;32;20452;-78
2022/11/22 07:34:24;;;;;;;54.85;10.48;;;;;;;3.60;100.00;96851.00;4451061;32;20077;-78
2022/11/22 07:36:51;;;;;;;48.17;10.35;;;;;;;4.06;99.98;96850.25;4445552;32;20121;-79
2022/11/22 07:39:25;;;;;;;79.65;12.55;;;;;;;3.91;99.99;96837.19;4443826;32;20162;-80
2022/11/22 07:41:52;;;;;;;53.87;11.40;;;;;;;3.54;100.00;96830.81;4443596;32;20733;-79
2022/11/22 07:44:19;;;;;;;92.55;12.27;;;;;;;3.99;100.00;96835.19;4440471;32;20097;-79
2022/11/22 07:46:47;;;;;;;18.42;6.87;;;;;;;4.11;99.83;96826.25;4440643;32;20449;-78
2022/11/22 07:49:14;;;;;;;55.40;11.38;;;;;;;3.85;100.00;96828.03;4440449;32;20159;-79
2022/11/22 07:51:41;;;;;;;51.65;11.25;;;;;;;3.77;100.00;96828.31;4440352;32;20116;-80
2022/11/22 07:54:10;;;;;;;;;;;;;;;3.88;100.00;96824.53;4423792;32;20090;-79
2022/11/22 07:56:37;;;;;;;57.40;11.80;;;;;;;4.14;100.00;96828.69;4424272;32;19969;-80
2022/11/22 07:59:04;;;;;;;28.00;9.18;;;;;;;3.68;100.00;96827.78;4424791;32;20114;-80
2022/11/22 08:01:31;;;;;;;58.00;10.95;;;;;;;4.22;100.00;96824.97;4428394;32;20121;-81
2022/11/22 08:03:58;;;;;;;40.22;12.05;;;;;;;3.76;100.00;96829.19;4431562;32;20093;-77
2022/11/22 08:06:25;;;;;;;;;;;;;;;4.32;100.00;96821.19;4432213;32;20074;-79
2022/11/22 08:08:52;;;;;;;45.10;12.93;;;;;;;4.25;100.00;96811.25;4430989;32;19988;-79
2022/11/22 08:11:27;;;;;;;88.35;17.67;;;;;;;4.14;100.00;96821.03;4432807;32;20109;-79
2022/11/22 08:13:54;;;;;;;62.78;12.75;;;;;;;3.98;100.00;96831.81;4427215;32;20082;-78
2022/11/22 08:16:20;;;;;;;73.80;17.52;;;;;;;3.55;100.00;96826.56;4424484;32;20081;-78
2022/11/22 08:18:48;;;;;;;;;;;;;;;3.77;100.00;96822.37;4426033;32;20062;-79
2022/11/22 08:21:16;;;;;;;;;;;;;;;3.52;100.00;96814.75;4428399;32;19985;-79
2022/11/22 08:23:44;;;;;;;88.45;18.23;;;;;;;4.00;100.00;96816.44;4426322;32;19965;-78
2022/11/22 08:26:13;;;;;;;55.92;16.65;;;;;;;4.43;100.00;96815.69;4430094;32;20139;-78
2022/11/22 08:28:40;;;;;;;47.88;16.42;;;;;;;4.52;98.67;96820.44;4431388;32;20152;-79
2022/11/22 08:31:17;;;;;;;53.10;17.35;;;;;;;4.35;100.00;96823.63;4427151;32;20105;-79
2022/11/22 08:33:45;;;;;;;44.08;16.00;;;;;;;4.13;100.00;96825.31;4428841;32;20093;-79
2022/11/22 08:36:12;;;;;;;57.00;19.37;;;;;;;4.11;100.00;96832.19;4426553;32;20090;-79
2022/11/22 08:38:40;;;;;;;56.85;19.15;;;;;;;4.34;100.00;96832.19;4430676;32;20097;-78
2022/11/22 08:41:07;;;;;;;66.28;23.75;;;;;;;4.30;100.00;96840.03;4431934;32;20118;-78
2022/11/22 08:43:34;;;;;;;46.08;19.27;;;;;;;4.09;100.00;96844.19;4431553;32;20069;-78
2022/11/22 08:46:01;;;;;;;40.05;15.57;;;;;;;4.48;99.18;96846.19;4430783;32;20084;-78
2022/11/22 08:48:29;;;;;;;63.17;22.27;;;;;;;4.89;96.66;96854.78;4430788;32;20147;-79
2022/11/22 08:51:00;;;;;;;43.35;16.23;;;;;;;4.67;97.91;96851.41;4429706;32;20111;-78
2022/11/22 08:53:28;;;;;;;52.95;21.50;;;;;;;4.93;95.80;96849.50;4434728;32;20081;-77
2022/11/22 08:55:58;;;;;;;59.03;20.10;;;;;;;4.62;97.51;96854.97;4442997;32;152393;-78
2022/11/22 08:58:25;;;;;;;42.95;17.73;;;;;;;5.67;91.68;96852.47;4447648;32;20112;-77
2022/11/22 09:00:54;;;;;;;33.53;13.00;;;;;;;5.18;93.61;96848.53;4447855;32;20070;-78
2022/11/22 09:03:21;;;;;;;29.83;11.38;;;;;;;5.14;95.36;96841.88;4448155;32;20107;-77
2022/11/22 09:05:48;;;;;;;34.60;14.90;;;;;;;4.95;96.32;96836.66;4447003;32;20082;-77
2022/11/22 09:08:36;;;;;;;27.05;11.93;;;;;;;5.30;94.35;96825.00;4448734;32;20084;-79
2022/11/22 09:11:14;;;;;;;39.97;14.63;;;;;;;5.01;96.88;96841.53;4449043;32;20099;-78
2022/11/22 09:13:41;;;;;;;42.70;18.10;;;;;;;4.91;97.48;96830.03;4445921;32;20453;-79
2022/11/22 09:16:11;;;;;;;30.65;13.55;;;;;;;5.22;95.78;96834.75;4442445;32;20158;-78
2022/11/22 09:18:38;;;;;;;42.45;17.25;;;;;;;4.67;97.29;96829.22;4443041;32;20116;-78
2022/11/22 09:21:14;;;;;;;45.00;20.10;;;;;;;4.69;98.64;96831.75;4447087;32;20072;-78
2022/11/22 09:23:45;;;;;;;35.55;15.57;;;;;;;5.04;98.06;96843.13;4446163;32;20103;-78
2022/11/22 09:26:19;;;;;;;40.30;16.77;;;;;;;4.83;98.98;96844.81;4445484;32;20045;-77
2022/11/22 09:28:46;;;;;;;36.83;16.75;;;;;;;5.60;95.87;96845.09;4446516;32;20062;-78
2022/11/22 09:31:18;;;;;;;29.27;12.07;;;;;;;5.68;94.36;96840.50;4443367;32;20142;-78
2022/11/22 09:33:46;;;;;;;32.65;13.98;;;;;;;5.76;93.63;96829.03;4433151;32;20070;-77
2022/11/22 09:36:25;;;;;;;31.02;12.77;;;;;;;5.78;92.71;96826.41;4443858;32;20155;-78
2022/11/22 09:38:52;;;;;;;37.40;16.92;;;;;;;5.61;94.22;96823.72;4441297;32;20085;-78
2022/11/22 09:41:35;;;;;;;22.58;11.48;;;;;;;5.12;96.58;96818.09;4442378;32;20753;-78
2022/11/22 09:44:11;;;;;;;31.10;13.80;;;;;;;5.36;95.88;96811.97;4439579;32;20077;-77
2022/11/22 09:46:57;;;;;;;34.40;14.57;;;;;;;5.17;96.57;96806.78;4439503;32;20505;-78
2022/11/22 09:49:29;;;;;;;36.30;16.20;;;;;;;5.39;97.12;96806.72;4439297;32;20101;-77
2022/11/22 09:52:19;;;;;;;42.75;19.02;;;;;;;5.16;99.14;96807.69;4425432;32;20101;-79
2022/11/22 09:54:56;;;;;;;33.05;13.82;;;;;;;5.87;96.22;96800.41;4424484;32;20085;-79
2022/11/22 09:57:27;;;;;;;39.78;16.85;;;;;;;5.49;95.88;96786.72;4425344;32;20103;-78
2022/11/22 10:00:05;;;;;;;28.95;13.07;;;;;;;5.57;96.96;96776.16;4439690;32;20159;-79
2022/11/22 10:02:35;;;;;;;31.23;13.50;;;;;;;5.44;97.71;96765.62;4438878;32;20093;-78
2022/11/22 10:05:26;;;;;;;33.65;16.67;;;;;;;5.51;96.58;96765.28;4427043;32;20085;-78
2022/11/22 10:08:03;;;;;;;35.03;16.20;;;;;;;4.97;99.66;96759.91;4425899;32;20089;-79
2022/11/22 10:10:41;;;;;;;45.83;20.57;;;;;;;5.89;96.14;96765.34;4425442;32;20151;-79
2022/11/22 10:13:17;;;;;;;43.90;19.12;;;;;;;5.69;97.17;96745.75;4440268;32;20147;-78
2022/11/22 10:16:08;;;;;;;46.30;19.15;;;;;;;5.64;96.85;96739.19;4425437;32;20094;-78
2022/11/22 10:18:54;;;;;;;48.90;21.12;;;;;;;5.71;94.94;96749.06;4440789;32;20081;-79
2022/11/22 10:21:21;;;;;;;52.60;23.35;;;;;;;5.66;97.65;96745.06;4439428;32;20093;-78
2022/11/22 10:23:48;;;;;;;44.05;16.20;;;;;;;5.02;99.76;96732.47;4444186;32;20078;-79
2022/11/22 10:26:26;;;;;;;48.78;22.65;;;;;;;4.99;100.00;96722.34;4440694;32;20077;-79
2022/11/22 10:29:22;;;;;;;49.90;21.12;;;;;;;4.99;100.00;96715.50;4429255;32;20076;-79
2022/11/22 10:32:12;;;;;;;46.67;21.15;;;;;;;5.32;99.24;96722.66;4440352;32;20117;-80
2022/11/22 10:34:57;;;;;;;35.47;15.93;;;;;;;5.15;99.30;96715.69;4438903;32;20101;-79
2022/11/22 10:37:34;;;;;;;37.35;17.65;;;;;;;4.93;100.00;96698.72;4439648;32;20454;-79
2022/11/22 10:40:22;;;;;;;31.90;14.73;;;;;;;5.64;97.18;96708.47;4441086;32;20159;-79
2022/11/22 10:43:26;;;;;;;26.37;12.77;;;;;;;5.30;97.79;96714.19;4426858;32;20121;-80
2022/11/22 10:46:05;;;;;;;34.55;15.45;;;;;;;5.27;98.30;96709.22;4440201;32;20081;-80
2022/11/22 10:48:54;;;;;;;28.23;13.75;;;;;;;5.54;97.90;96713.16;4427089;32;20436;-80
2022/11/22 10:52:10;;;;;;;28.35;14.38;;;;;;;5.63;97.68;96694.00;4440467;32;20107;-81
2022/11/22 10:54:53;;;;;;;40.67;17.85;;;;;;;5.61;97.99;96688.13;4376547;32;20237;-82
2022/11/22 10:57:35;;;;;;;40.75;15.48;;;;;;;6.10;95.87;96681.62;4435013;32;20102;-80
2022/11/22 11:00:15;;;;;;;41.97;18.45;;;;;;;5.91;96.19;96686.78;4440895;32;20108;-80
2022/11/22 11:03:08;;;;;;;37.92;17.33;;;;;;;5.83;97.79;96681.12;4440638;32;20121;-79
2022/11/22 11:05:50;;;;;;;39.25;17.02;;;;;;;5.45;99.24;96675.19;4426011;32;20089;-80
2022/11/22 11:08:48;;;;;;;45.72;19.02;;;;;;;5.54;98.34;96674.78;4428933;32;20102;-80
2022/11/22 11:11:36;;;;;;;48.90;21.00;;;;;;;5.47;99.99;96681.06;4428256;32;20085;-79
2022/11/22 11:14:07;;;;;;;33.92;15.00;;;;;;;5.80;98.08;96678.72;4425093;32;20094;-80
2022/11/22 11:16:35;;;;;;;33.22;15.65;;;;;;;6.26;95.65;96663.81;4426351;32;20101;-80
2022/11/22 11:19:34;;;;;;;38.42;17.48;;;;;;;5.74;98.17;96655.94;4439404;32;20098;-81
2022/11/22 11:22:14;;;;;;;36.63;17.02;;;;;;;5.65;98.25;96648.72;4414706;32;20062;-81
2022/11/22 11:24:41;;;;;;;42.92;18.62;;;;;;;5.56;99.03;96649.97;4425912;32;20133;-81
2022/11/22 11:27:10;;;;;;;44.30;17.02;;;;;;;6.06;99.00;96644.25;4440507;32;20692;-81
2022/11/22 11:29:42;;;;;;;46.78;20.58;;;;;;;5.96;98.57;96641.31;4426882;32;20503;-81
2022/11/22 11:32:18;;;;;;;42.88;18.75;;;;;;;6.38;95.90;96637.63;4440284;32;20478;-81
2022/11/22 11:34:56;;;;;;;37.40;17.98;;;;;;;6.42;95.79;96618.63;4439589;32;20077;-81
2022/11/22 11:37:25;;;;;;;;;;;;;;;6.66;94.51;96625.09;4440828;32;20085;-81
2022/11/22 11:39:52;;;;;;;41.08;18.55;;;;;;;6.75;94.80;96623.81;4440193;32;19981;-81
2022/11/22 11:42:25;;;;;;;37.08;15.43;;;;;;;6.77;94.63;96619.44;4413768;32;20111;-81
2022/11/22 11:44:53;;;;;;;36.63;14.65;;;;;;;6.44;97.64;96614.25;4425716;32;20085;-81
2022/11/22 11:47:33;;;;;;;37.03;15.95;;;;;;;6.54;96.88;96610.34;4426172;32;20106;-80
2022/11/22 11:50:00;;;;;;;33.88;14.85;;;;;;;6.50;97.38;96605.44;4439086;32;20105;-81
2022/11/22 11:52:28;;;;;;;;;;;;;;;6.59;97.71;96600.69;4440643;32;20090;-81
2022/11/22 11:54:57;;;;;;;21.87;7.87;;;;;;;6.92;96.43;96603.28;4439439;32;19965;-81
2022/11/22 11:57:33;;;;;;;32.35;13.93;;;;;;;7.29;94.43;96615.94;4439778;32;20133;-81
2022/11/22 12:00:02;;;;;;;26.48;12.05;;;;;;;7.01;94.67;96601.97;4426354;32;20112;-81